sensor_id;sensor_type;location;lat;lon;timestamp;pressure;altitude;pressure_sealevel;temperature;humidity
47742;BME280;33504;52.066;6.096;2023-05-23T00:00:36;101693.77;;;18.42;44.97
47742;BME280;33504;52.066;6.096;2023-05-23T00:03:03;101698.81;;;18.27;44.79
47742;BME280;33504;52.066;6.096;2023-05-23T00:05:29;101699.83;;;18.34;45.11
47742;BME280;33504;52.066;6.096;2023-05-23T00:07:56;101696.39;;;18.41;45.46
47742;BME280;33504;52.066;6.096;2023-05-23T00:10:23;101700.42;;;18.31;45.29
47742;BME280;33504;52.066;6.096;2023-05-23T00:12:50;101699.22;;;18.34;45.27
47742;BME280;33504;52.066;6.096;2023-05-23T00:15:17;101699.88;;;18.18;45.46
47742;BME280;33504;52.066;6.096;2023-05-23T00:17:44;101701.07;;;18.75;44.91
47742;BME280;33504;52.066;6.096;2023-05-23T00:20:11;101704.80;;;18.42;45.09
47742;BME280;33504;52.066;6.096;2023-05-23T00:22:38;101699.31;;;18.07;45.62
47742;BME280;33504;52.066;6.096;2023-05-23T00:25:06;101694.95;;;17.91;45.40
47742;BME280;33504;52.066;6.096;2023-05-23T00:27:34;101695.59;;;18.20;45.86
47742;BME280;33504;52.066;6.096;2023-05-23T00:30:01;101694.31;;;18.07;45.83
47742;BME280;33504;52.066;6.096;2023-05-23T00:32:29;101694.08;;;18.08;45.85
47742;BME280;33504;52.066;6.096;2023-05-23T00:34:55;101695.04;;;18.17;45.75
47742;BME280;33504;52.066;6.096;2023-05-23T00:37:22;101697.00;;;18.25;45.99
47742;BME280;33504;52.066;6.096;2023-05-23T00:39:49;101699.88;;;18.45;45.52
47742;BME280;33504;52.066;6.096;2023-05-23T00:42:16;101697.87;;;18.12;45.18
47742;BME280;33504;52.066;6.096;2023-05-23T00:44:43;101699.73;;;18.49;45.04
47742;BME280;33504;52.066;6.096;2023-05-23T00:47:11;101696.89;;;18.28;45.56
47742;BME280;33504;52.066;6.096;2023-05-23T00:49:37;101700.87;;;18.05;45.98
47742;BME280;33504;52.066;6.096;2023-05-23T00:52:05;101705.77;;;18.09;46.03
47742;BME280;33504;52.066;6.096;2023-05-23T00:54:33;101711.38;;;17.91;46.44
47742;BME280;33504;52.066;6.096;2023-05-23T00:57:02;101716.67;;;17.69;47.10
47742;BME280;33504;52.066;6.096;2023-05-23T00:59:29;101711.41;;;17.88;46.36
47742;BME280;33504;52.066;6.096;2023-05-23T01:01:58;101716.40;;;18.22;46.47
47742;BME280;33504;52.066;6.096;2023-05-23T01:04:26;101717.10;;;18.10;47.01
47742;BME280;33504;52.066;6.096;2023-05-23T01:06:54;101728.56;;;17.79;47.06
47742;BME280;33504;52.066;6.096;2023-05-23T01:09:23;101727.83;;;17.17;47.73
47742;BME280;33504;52.066;6.096;2023-05-23T01:11:59;101727.93;;;16.92;47.70
47742;BME280;33504;52.066;6.096;2023-05-23T01:14:34;101729.79;;;17.23;47.27
47742;BME280;33504;52.066;6.096;2023-05-23T01:17:06;101730.11;;;17.51;47.02
47742;BME280;33504;52.066;6.096;2023-05-23T01:19:50;101734.60;;;17.10;46.66
47742;BME280;33504;52.066;6.096;2023-05-23T01:22:26;101734.54;;;17.26;46.62
47742;BME280;33504;52.066;6.096;2023-05-23T01:25:10;101735.18;;;17.12;46.82
47742;BME280;33504;52.066;6.096;2023-05-23T01:27:45;101731.07;;;17.03;47.06
47742;BME280;33504;52.066;6.096;2023-05-23T01:30:17;101732.90;;;17.09;46.93
47742;BME280;33504;52.066;6.096;2023-05-23T01:32:46;101730.07;;;17.58;46.46
47742;BME280;33504;52.066;6.096;2023-05-23T01:35:20;101725.21;;;17.52;46.27
47742;BME280;33504;52.066;6.096;2023-05-23T01:37:48;101722.13;;;17.54;46.53
47742;BME280;33504;52.066;6.096;2023-05-23T01:40:15;101720.50;;;17.69;46.35
47742;BME280;33504;52.066;6.096;2023-05-23T01:42:41;101724.68;;;17.43;46.65
47742;BME280;33504;52.066;6.096;2023-05-23T01:45:09;101732.86;;;17.47;46.55
47742;BME280;33504;52.066;6.096;2023-05-23T01:47:37;101732.97;;;17.60;46.66
47742;BME280;33504;52.066;6.096;2023-05-23T01:50:06;101734.38;;;17.37;46.61
47742;BME280;33504;52.066;6.096;2023-05-23T01:52:34;101732.56;;;17.72;46.58
47742;BME280;33504;52.066;6.096;2023-05-23T01:55:05;101740.39;;;17.51;46.94
47742;BME280;33504;52.066;6.096;2023-05-23T01:57:32;101741.76;;;17.30;46.94
47742;BME280;33504;52.066;6.096;2023-05-23T02:00:00;101738.25;;;17.53;46.45
47742;BME280;33504;52.066;6.096;2023-05-23T02:02:27;101741.75;;;17.78;46.59
47742;BME280;33504;52.066;6.096;2023-05-23T02:04:54;101745.80;;;17.32;46.91
47742;BME280;33504;52.066;6.096;2023-05-23T02:07:20;101744.98;;;17.00;47.91
47742;BME280;33504;52.066;6.096;2023-05-23T02:09:48;101751.29;;;17.42;47.22
47742;BME280;33504;52.066;6.096;2023-05-23T02:12:15;101747.00;;;17.60;46.99
47742;BME280;33504;52.066;6.096;2023-05-23T02:14:42;101752.83;;;17.40;47.35
47742;BME280;33504;52.066;6.096;2023-05-23T02:17:09;101753.44;;;17.28;47.55
47742;BME280;33504;52.066;6.096;2023-05-23T02:19:36;101759.65;;;17.49;47.29
47742;BME280;33504;52.066;6.096;2023-05-23T02:22:03;101751.45;;;17.31;46.78
47742;BME280;33504;52.066;6.096;2023-05-23T02:24:30;101753.90;;;17.79;47.17
47742;BME280;33504;52.066;6.096;2023-05-23T02:26:58;101757.76;;;18.02;46.57
47742;BME280;33504;52.066;6.096;2023-05-23T02:29:24;101760.50;;;17.71;46.69
47742;BME280;33504;52.066;6.096;2023-05-23T02:31:51;101761.94;;;17.61;46.52
47742;BME280;33504;52.066;6.096;2023-05-23T02:34:18;101765.33;;;17.76;46.80
47742;BME280;33504;52.066;6.096;2023-05-23T02:36:44;101774.80;;;17.55;46.98
47742;BME280;33504;52.066;6.096;2023-05-23T02:39:11;101778.22;;;17.58;47.52
47742;BME280;33504;52.066;6.096;2023-05-23T02:41:39;101776.76;;;17.64;46.93
47742;BME280;33504;52.066;6.096;2023-05-23T02:44:05;101781.60;;;17.57;47.43
47742;BME280;33504;52.066;6.096;2023-05-23T02:46:32;101783.45;;;17.22;47.77
47742;BME280;33504;52.066;6.096;2023-05-23T02:48:59;101781.76;;;17.26;47.65
47742;BME280;33504;52.066;6.096;2023-05-23T02:51:26;101787.09;;;17.29;47.66
47742;BME280;33504;52.066;6.096;2023-05-23T02:53:53;101787.66;;;17.28;47.24
47742;BME280;33504;52.066;6.096;2023-05-23T02:56:20;101789.83;;;17.42;47.29
47742;BME280;33504;52.066;6.096;2023-05-23T02:58:47;101787.28;;;17.43;47.17
47742;BME280;33504;52.066;6.096;2023-05-23T03:01:15;101788.54;;;17.28;47.51
47742;BME280;33504;52.066;6.096;2023-05-23T03:03:42;101784.09;;;17.39;47.39
47742;BME280;33504;52.066;6.096;2023-05-23T03:06:09;101783.24;;;17.60;47.11
47742;BME280;33504;52.066;6.096;2023-05-23T03:08:36;101788.65;;;17.71;46.92
47742;BME280;33504;52.066;6.096;2023-05-23T03:11:03;101792.43;;;17.24;47.23
47742;BME280;33504;52.066;6.096;2023-05-23T03:13:31;101792.52;;;17.56;46.98
47742;BME280;33504;52.066;6.096;2023-05-23T03:15:57;101786.66;;;17.50;47.15
47742;BME280;33504;52.066;6.096;2023-05-23T03:18:25;101793.22;;;16.92;47.59
47742;BME280;33504;52.066;6.096;2023-05-23T03:20:52;101794.35;;;16.80;48.01
47742;BME280;33504;52.066;6.096;2023-05-23T03:23:19;101794.70;;;17.22;47.81
47742;BME280;33504;52.066;6.096;2023-05-23T03:25:47;101799.86;;;17.44;47.37
47742;BME280;33504;52.066;6.096;2023-05-23T03:28:14;101802.07;;;17.30;47.20
47742;BME280;33504;52.066;6.096;2023-05-23T03:30:41;101807.50;;;17.37;47.17
47742;BME280;33504;52.066;6.096;2023-05-23T03:33:08;101800.87;;;17.52;46.84
47742;BME280;33504;52.066;6.096;2023-05-23T03:35:35;101807.73;;;17.50;46.95
47742;BME280;33504;52.066;6.096;2023-05-23T03:38:02;101806.87;;;17.43;47.09
47742;BME280;33504;52.066;6.096;2023-05-23T03:40:29;101803.64;;;17.35;47.10
47742;BME280;33504;52.066;6.096;2023-05-23T03:43:05;101802.22;;;16.57;47.81
47742;BME280;33504;52.066;6.096;2023-05-23T03:45:32;101806.16;;;16.97;47.39
47742;BME280;33504;52.066;6.096;2023-05-23T03:48:00;101809.84;;;17.20;47.00
47742;BME280;33504;52.066;6.096;2023-05-23T03:50:27;101808.49;;;16.58;47.52
47742;BME280;33504;52.066;6.096;2023-05-23T03:52:54;101809.27;;;17.06;47.37
47742;BME280;33504;52.066;6.096;2023-05-23T03:55:21;101813.78;;;17.03;47.34
47742;BME280;33504;52.066;6.096;2023-05-23T03:57:49;101818.10;;;16.79;47.20
47742;BME280;33504;52.066;6.096;2023-05-23T04:00:17;101819.56;;;16.81;47.20
47742;BME280;33504;52.066;6.096;2023-05-23T04:02:45;101819.54;;;16.71;47.09
47742;BME280;33504;52.066;6.096;2023-05-23T04:05:12;101820.37;;;17.15;46.78
47742;BME280;33504;52.066;6.096;2023-05-23T04:07:39;101824.01;;;17.34;46.47
47742;BME280;33504;52.066;6.096;2023-05-23T04:10:08;101831.00;;;17.31;46.04
47742;BME280;33504;52.066;6.096;2023-05-23T04:12:35;101833.94;;;17.34;46.05
47742;BME280;33504;52.066;6.096;2023-05-23T04:15:02;101831.73;;;17.38;45.92
47742;BME280;33504;52.066;6.096;2023-05-23T04:17:29;101831.93;;;17.45;45.74
47742;BME280;33504;52.066;6.096;2023-05-23T04:19:56;101830.22;;;17.35;45.67
47742;BME280;33504;52.066;6.096;2023-05-23T04:22:23;101830.21;;;17.11;45.93
47742;BME280;33504;52.066;6.096;2023-05-23T04:24:50;101831.84;;;17.22;45.69
47742;BME280;33504;52.066;6.096;2023-05-23T04:27:17;101833.22;;;17.51;45.58
47742;BME280;33504;52.066;6.096;2023-05-23T04:29:43;101835.91;;;17.22;45.52
47742;BME280;33504;52.066;6.096;2023-05-23T04:32:10;101840.86;;;17.26;45.52
47742;BME280;33504;52.066;6.096;2023-05-23T04:34:37;101844.54;;;17.56;45.50
47742;BME280;33504;52.066;6.096;2023-05-23T04:37:05;101846.65;;;17.24;45.23
47742;BME280;33504;52.066;6.096;2023-05-23T04:39:31;101850.62;;;17.26;45.03
47742;BME280;33504;52.066;6.096;2023-05-23T04:41:59;101851.80;;;17.18;44.54
47742;BME280;33504;52.066;6.096;2023-05-23T04:44:25;101846.87;;;17.17;44.36
47742;BME280;33504;52.066;6.096;2023-05-23T04:46:52;101851.85;;;17.17;44.82
47742;BME280;33504;52.066;6.096;2023-05-23T04:49:20;101854.63;;;17.23;44.86
47742;BME280;33504;52.066;6.096;2023-05-23T04:51:46;101861.87;;;17.16;45.27
47742;BME280;33504;52.066;6.096;2023-05-23T04:54:13;101859.71;;;17.16;45.51
47742;BME280;33504;52.066;6.096;2023-05-23T04:56:41;101870.44;;;17.48;45.36
47742;BME280;33504;52.066;6.096;2023-05-23T04:59:07;101877.96;;;16.63;46.11
47742;BME280;33504;52.066;6.096;2023-05-23T05:01:35;101883.75;;;16.93;45.51
47742;BME280;33504;52.066;6.096;2023-05-23T05:04:02;101884.96;;;16.69;45.83
47742;BME280;33504;52.066;6.096;2023-05-23T05:06:29;101889.09;;;16.67;45.74
47742;BME280;33504;52.066;6.096;2023-05-23T05:08:56;101891.82;;;16.77;45.81
47742;BME280;33504;52.066;6.096;2023-05-23T05:11:22;101895.20;;;16.16;46.21
47742;BME280;33504;52.066;6.096;2023-05-23T05:13:49;101900.32;;;16.81;46.02
47742;BME280;33504;52.066;6.096;2023-05-23T05:16:16;101904.27;;;16.68;45.90
47742;BME280;33504;52.066;6.096;2023-05-23T05:18:43;101908.54;;;16.87;45.82
47742;BME280;33504;52.066;6.096;2023-05-23T05:21:09;101913.07;;;16.88;45.87
47742;BME280;33504;52.066;6.096;2023-05-23T05:23:37;101916.23;;;16.75;46.17
47742;BME280;33504;52.066;6.096;2023-05-23T05:26:03;101918.61;;;17.08;45.94
47742;BME280;33504;52.066;6.096;2023-05-23T05:28:30;101921.72;;;16.52;46.01
47742;BME280;33504;52.066;6.096;2023-05-23T05:30:58;101928.50;;;16.66;46.02
47742;BME280;33504;52.066;6.096;2023-05-23T05:33:24;101930.87;;;16.06;46.41
47742;BME280;33504;52.066;6.096;2023-05-23T05:35:52;101941.67;;;16.51;45.99
47742;BME280;33504;52.066;6.096;2023-05-23T05:38:19;101948.87;;;15.55;47.02
47742;BME280;33504;52.066;6.096;2023-05-23T05:40:46;101946.67;;;16.05;46.62
47742;BME280;33504;52.066;6.096;2023-05-23T05:43:13;101947.97;;;16.25;46.37
47742;BME280;33504;52.066;6.096;2023-05-23T05:45:40;101949.39;;;16.20;46.45
47742;BME280;33504;52.066;6.096;2023-05-23T05:48:08;101953.06;;;16.05;46.67
47742;BME280;33504;52.066;6.096;2023-05-23T05:50:35;101954.92;;;16.35;45.87
47742;BME280;33504;52.066;6.096;2023-05-23T05:53:02;101956.50;;;16.52;45.98
47742;BME280;33504;52.066;6.096;2023-05-23T05:55:29;101953.34;;;16.52;45.97
47742;BME280;33504;52.066;6.096;2023-05-23T05:57:56;101957.24;;;16.23;46.07
47742;BME280;33504;52.066;6.096;2023-05-23T06:00:23;101959.56;;;16.33;45.96
47742;BME280;33504;52.066;6.096;2023-05-23T06:02:51;101962.86;;;16.35;46.04
47742;BME280;33504;52.066;6.096;2023-05-23T06:05:18;101966.93;;;16.22;46.11
47742;BME280;33504;52.066;6.096;2023-05-23T06:07:47;101971.92;;;16.15;46.12
47742;BME280;33504;52.066;6.096;2023-05-23T06:10:15;101976.32;;;15.83;46.59
47742;BME280;33504;52.066;6.096;2023-05-23T06:12:42;101980.77;;;15.63;46.79
47742;BME280;33504;52.066;6.096;2023-05-23T06:15:10;101981.82;;;15.37;46.95
47742;BME280;33504;52.066;6.096;2023-05-23T06:17:37;101985.74;;;15.64;46.41
47742;BME280;33504;52.066;6.096;2023-05-23T06:20:04;101987.32;;;15.55;46.66
47742;BME280;33504;52.066;6.096;2023-05-23T06:22:32;101984.84;;;15.17;47.18
47742;BME280;33504;52.066;6.096;2023-05-23T06:24:59;101991.07;;;15.20;46.51
47742;BME280;33504;52.066;6.096;2023-05-23T06:27:26;101995.41;;;15.26;46.75
47742;BME280;33504;52.066;6.096;2023-05-23T06:29:53;101995.28;;;15.50;46.16
47742;BME280;33504;52.066;6.096;2023-05-23T06:32:20;101998.04;;;15.48;46.28
47742;BME280;33504;52.066;6.096;2023-05-23T06:34:48;102001.66;;;15.33;46.47
47742;BME280;33504;52.066;6.096;2023-05-23T06:37:14;102006.61;;;15.51;46.02
47742;BME280;33504;52.066;6.096;2023-05-23T06:39:41;102011.32;;;15.15;45.73
47742;BME280;33504;52.066;6.096;2023-05-23T06:42:08;102016.60;;;14.88;45.60
47742;BME280;33504;52.066;6.096;2023-05-23T06:44:35;102018.38;;;15.23;45.64
47742;BME280;33504;52.066;6.096;2023-05-23T06:47:02;102022.91;;;14.67;45.76
47742;BME280;33504;52.066;6.096;2023-05-23T06:49:30;102026.02;;;15.22;45.27
47742;BME280;33504;52.066;6.096;2023-05-23T06:51:57;102028.22;;;15.16;45.06
47742;BME280;33504;52.066;6.096;2023-05-23T06:54:23;102027.40;;;15.65;44.60
47742;BME280;33504;52.066;6.096;2023-05-23T06:56:50;102034.65;;;15.05;44.60
47742;BME280;33504;52.066;6.096;2023-05-23T06:59:18;102030.99;;;14.77;44.89
47742;BME280;33504;52.066;6.096;2023-05-23T07:01:45;102029.92;;;15.16;43.88
47742;BME280;33504;52.066;6.096;2023-05-23T07:04:12;102032.80;;;15.70;43.90
47742;BME280;33504;52.066;6.096;2023-05-23T07:06:38;102036.34;;;15.53;43.62
47742;BME280;33504;52.066;6.096;2023-05-23T07:09:06;102031.83;;;16.09;43.22
47742;BME280;33504;52.066;6.096;2023-05-23T07:11:33;102033.97;;;15.83;43.06
47742;BME280;33504;52.066;6.096;2023-05-23T07:14:00;102032.91;;;15.99;42.75
47742;BME280;33504;52.066;6.096;2023-05-23T07:16:26;102037.96;;;16.04;42.61
47742;BME280;33504;52.066;6.096;2023-05-23T07:18:53;102038.04;;;15.62;42.24
47742;BME280;33504;52.066;6.096;2023-05-23T07:21:20;102041.28;;;15.57;42.49
47742;BME280;33504;52.066;6.096;2023-05-23T07:23:47;102036.85;;;15.67;41.33
47742;BME280;33504;52.066;6.096;2023-05-23T07:26:14;102042.27;;;16.11;41.44
47742;BME280;33504;52.066;6.096;2023-05-23T07:28:41;102041.83;;;15.88;41.08
47742;BME280;33504;52.066;6.096;2023-05-23T07:31:08;102052.34;;;16.04;41.19
47742;BME280;33504;52.066;6.096;2023-05-23T07:33:34;102052.05;;;15.91;40.99
47742;BME280;33504;52.066;6.096;2023-05-23T07:36:01;102052.82;;;15.95;40.96
47742;BME280;33504;52.066;6.096;2023-05-23T07:38:28;102056.34;;;15.82;41.02
47742;BME280;33504;52.066;6.096;2023-05-23T07:40:55;102052.98;;;15.97;41.24
47742;BME280;33504;52.066;6.096;2023-05-23T07:43:21;102054.26;;;16.12;40.81
47742;BME280;33504;52.066;6.096;2023-05-23T07:45:48;102054.12;;;16.08;40.68
47742;BME280;33504;52.066;6.096;2023-05-23T07:48:15;102057.73;;;16.14;40.35
47742;BME280;33504;52.066;6.096;2023-05-23T07:50:42;102063.25;;;16.55;40.77
47742;BME280;33504;52.066;6.096;2023-05-23T07:53:08;102060.22;;;16.01;40.70
47742;BME280;33504;52.066;6.096;2023-05-23T07:55:35;102063.29;;;16.48;40.47
47742;BME280;33504;52.066;6.096;2023-05-23T07:58:02;102061.68;;;16.10;40.50
47742;BME280;33504;52.066;6.096;2023-05-23T08:00:28;102069.98;;;16.41;40.26
47742;BME280;33504;52.066;6.096;2023-05-23T08:02:55;102064.86;;;16.82;40.31
47742;BME280;33504;52.066;6.096;2023-05-23T08:05:22;102070.33;;;16.41;40.70
47742;BME280;33504;52.066;6.096;2023-05-23T08:07:48;102075.49;;;16.53;40.77
47742;BME280;33504;52.066;6.096;2023-05-23T08:10:15;102080.05;;;16.03;41.27
47742;BME280;33504;52.066;6.096;2023-05-23T08:12:42;102079.92;;;16.15;40.65
47742;BME280;33504;52.066;6.096;2023-05-23T08:15:09;102089.48;;;15.88;40.96
47742;BME280;33504;52.066;6.096;2023-05-23T08:17:36;102090.33;;;15.93;40.45
47742;BME280;33504;52.066;6.096;2023-05-23T08:20:04;102102.43;;;16.27;40.48
47742;BME280;33504;52.066;6.096;2023-05-23T08:22:31;102100.21;;;15.85;40.65
47742;BME280;33504;52.066;6.096;2023-05-23T08:24:57;102094.32;;;16.34;40.44
47742;BME280;33504;52.066;6.096;2023-05-23T08:27:24;102096.97;;;16.21;40.10
47742;BME280;33504;52.066;6.096;2023-05-23T08:29:51;102098.80;;;16.35;39.98
47742;BME280;33504;52.066;6.096;2023-05-23T08:32:18;102099.34;;;16.72;39.18
47742;BME280;33504;52.066;6.096;2023-05-23T08:34:45;102100.64;;;16.77;38.56
47742;BME280;33504;52.066;6.096;2023-05-23T08:37:11;102096.68;;;16.90;38.35
47742;BME280;33504;52.066;6.096;2023-05-23T08:39:38;102101.35;;;17.41;37.66
47742;BME280;33504;52.066;6.096;2023-05-23T08:42:06;102107.95;;;17.20;38.32
47742;BME280;33504;52.066;6.096;2023-05-23T08:44:33;102104.01;;;17.34;37.71
47742;BME280;33504;52.066;6.096;2023-05-23T08:47:02;102107.65;;;17.11;38.04
47742;BME280;33504;52.066;6.096;2023-05-23T08:49:30;102113.52;;;17.34;37.83
47742;BME280;33504;52.066;6.096;2023-05-23T08:52:01;102121.67;;;17.17;38.19
47742;BME280;33504;52.066;6.096;2023-05-23T08:54:28;102120.04;;;16.78;38.26
47742;BME280;33504;52.066;6.096;2023-05-23T08:56:55;102126.77;;;17.17;38.12
47742;BME280;33504;52.066;6.096;2023-05-23T08:59:24;102130.24;;;17.38;37.48
47742;BME280;33504;52.066;6.096;2023-05-23T09:01:54;102133.20;;;17.64;36.78
47742;BME280;33504;52.066;6.096;2023-05-23T09:04:21;102131.76;;;17.47;36.74
47742;BME280;33504;52.066;6.096;2023-05-23T09:06:49;102131.55;;;17.50;36.44
47742;BME280;33504;52.066;6.096;2023-05-23T09:09:16;102132.71;;;17.60;36.36
47742;BME280;33504;52.066;6.096;2023-05-23T09:11:44;102131.33;;;17.19;35.58
47742;BME280;33504;52.066;6.096;2023-05-23T09:14:12;102139.60;;;16.78;36.36
47742;BME280;33504;52.066;6.096;2023-05-23T09:16:39;102141.99;;;16.97;36.54
47742;BME280;33504;52.066;6.096;2023-05-23T09:19:13;102139.33;;;16.71;36.13
47742;BME280;33504;52.066;6.096;2023-05-23T09:21:42;102145.35;;;17.18;35.87
47742;BME280;33504;52.066;6.096;2023-05-23T09:24:10;102141.85;;;17.40;36.05
47742;BME280;33504;52.066;6.096;2023-05-23T09:26:37;102156.43;;;17.04;35.65
47742;BME280;33504;52.066;6.096;2023-05-23T09:29:05;102157.34;;;17.65;35.23
47742;BME280;33504;52.066;6.096;2023-05-23T09:31:32;102155.24;;;17.68;35.16
47742;BME280;33504;52.066;6.096;2023-05-23T09:33:59;102155.64;;;17.99;34.79
47742;BME280;33504;52.066;6.096;2023-05-23T09:36:28;102154.56;;;17.86;34.26
47742;BME280;33504;52.066;6.096;2023-05-23T09:38:55;102154.99;;;18.76;34.55
47742;BME280;33504;52.066;6.096;2023-05-23T09:41:23;102145.67;;;18.49;34.07
47742;BME280;33504;52.066;6.096;2023-05-23T09:43:51;102148.92;;;18.52;33.28
47742;BME280;33504;52.066;6.096;2023-05-23T09:46:19;102148.70;;;19.44;33.16
47742;BME280;33504;52.066;6.096;2023-05-23T09:48:47;102155.75;;;19.32;32.81
47742;BME280;33504;52.066;6.096;2023-05-23T09:51:14;102155.22;;;19.11;33.48
47742;BME280;33504;52.066;6.096;2023-05-23T09:53:49;102158.92;;;19.86;33.47
47742;BME280;33504;52.066;6.096;2023-05-23T09:56:16;102148.79;;;19.83;31.74
47742;BME280;33504;52.066;6.096;2023-05-23T09:58:46;102155.15;;;19.89;30.95
47742;BME280;33504;52.066;6.096;2023-05-23T10:01:15;102156.84;;;19.88;30.70
47742;BME280;33504;52.066;6.096;2023-05-23T10:03:45;102152.22;;;20.50;30.53
47742;BME280;33504;52.066;6.096;2023-05-23T10:06:22;102147.51;;;20.78;30.19
47742;BME280;33504;52.066;6.096;2023-05-23T10:08:55;102154.55;;;20.51;30.46
47742;BME280;33504;52.066;6.096;2023-05-23T10:13:21;102149.16;;;21.29;30.04
47742;BME280;33504;52.066;6.096;2023-05-23T10:15:58;102147.39;;;20.28;30.40
47742;BME280;33504;52.066;6.096;2023-05-23T10:18:28;102151.40;;;21.16;30.78
47742;BME280;33504;52.066;6.096;2023-05-23T10:21:00;102148.26;;;21.31;29.68
47742;BME280;33504;52.066;6.096;2023-05-23T10:23:30;102148.05;;;21.34;30.01
47742;BME280;33504;52.066;6.096;2023-05-23T10:25:58;102152.53;;;21.54;29.60
47742;BME280;33504;52.066;6.096;2023-05-23T10:28:26;102145.85;;;22.14;29.63
47742;BME280;33504;52.066;6.096;2023-05-23T10:30:53;102147.73;;;22.16;29.04
47742;BME280;33504;52.066;6.096;2023-05-23T10:33:21;102149.76;;;21.72;29.02
47742;BME280;33504;52.066;6.096;2023-05-23T10:35:55;102147.76;;;21.50;28.99
47742;BME280;33504;52.066;6.096;2023-05-23T10:38:30;102155.00;;;21.27;28.21
47742;BME280;33504;52.066;6.096;2023-05-23T10:41:06;102160.00;;;21.32;28.06
47742;BME280;33504;52.066;6.096;2023-05-23T10:43:42;102161.00;;;21.11;27.60
47742;BME280;33504;52.066;6.096;2023-05-23T10:46:12;102161.13;;;21.23;29.14
47742;BME280;33504;52.066;6.096;2023-05-23T10:48:41;102165.39;;;20.68;29.11
47742;BME280;33504;52.066;6.096;2023-05-23T10:51:10;102161.68;;;20.78;29.06
47742;BME280;33504;52.066;6.096;2023-05-23T10:53:38;102157.57;;;21.01;28.56
47742;BME280;33504;52.066;6.096;2023-05-23T10:56:06;102154.67;;;20.85;28.38
47742;BME280;33504;52.066;6.096;2023-05-23T10:58:36;102159.46;;;21.12;27.64
47742;BME280;33504;52.066;6.096;2023-05-23T11:01:06;102156.73;;;20.95;27.89
47742;BME280;33504;52.066;6.096;2023-05-23T11:03:36;102157.42;;;20.94;28.02
47742;BME280;33504;52.066;6.096;2023-05-23T11:06:04;102158.86;;;22.10;27.49
47742;BME280;33504;52.066;6.096;2023-05-23T11:08:39;102154.49;;;21.87;27.93
47742;BME280;33504;52.066;6.096;2023-05-23T11:11:07;102157.25;;;22.08;27.15
47742;BME280;33504;52.066;6.096;2023-05-23T11:14:07;102163.15;;;22.22;27.45
47742;BME280;33504;52.066;6.096;2023-05-23T11:16:40;102167.35;;;21.36;27.55
47742;BME280;33504;52.066;6.096;2023-05-23T11:19:24;102163.59;;;21.71;27.55
47742;BME280;33504;52.066;6.096;2023-05-23T11:21:53;102155.64;;;21.92;27.26
47742;BME280;33504;52.066;6.096;2023-05-23T11:24:21;102160.13;;;21.78;27.04
47742;BME280;33504;52.066;6.096;2023-05-23T11:26:52;102162.00;;;21.83;27.00
47742;BME280;33504;52.066;6.096;2023-05-23T11:29:19;102157.47;;;21.73;26.61
47742;BME280;33504;52.066;6.096;2023-05-23T11:31:47;102159.37;;;21.71;26.87
47742;BME280;33504;52.066;6.096;2023-05-23T11:34:14;102159.81;;;21.64;27.67
47742;BME280;33504;52.066;6.096;2023-05-23T11:36:42;102167.85;;;21.45;27.19
47742;BME280;33504;52.066;6.096;2023-05-23T11:39:09;102168.18;;;21.60;28.06
47742;BME280;33504;52.066;6.096;2023-05-23T11:41:37;102175.35;;;21.78;27.24
47742;BME280;33504;52.066;6.096;2023-05-23T11:44:10;102166.96;;;22.15;26.84
47742;BME280;33504;52.066;6.096;2023-05-23T11:46:38;102165.90;;;22.49;27.30
47742;BME280;33504;52.066;6.096;2023-05-23T11:49:10;102171.06;;;22.17;26.73
47742;BME280;33504;52.066;6.096;2023-05-23T11:51:37;102171.73;;;22.46;26.21
47742;BME280;33504;52.066;6.096;2023-05-23T11:54:04;102164.57;;;22.05;26.36
47742;BME280;33504;52.066;6.096;2023-05-23T11:56:38;102175.68;;;21.67;26.40
47742;BME280;33504;52.066;6.096;2023-05-23T11:59:05;102174.33;;;22.01;26.89
47742;BME280;33504;52.066;6.096;2023-05-23T12:01:36;102175.91;;;21.91;27.14
47742;BME280;33504;52.066;6.096;2023-05-23T12:04:09;102182.00;;;22.47;27.65
47742;BME280;33504;52.066;6.096;2023-05-23T12:06:37;102183.03;;;22.16;27.08
47742;BME280;33504;52.066;6.096;2023-05-23T12:09:04;102175.24;;;22.86;26.14
47742;BME280;33504;52.066;6.096;2023-05-23T12:11:32;102175.18;;;23.12;25.77
47742;BME280;33504;52.066;6.096;2023-05-23T12:13:59;102171.48;;;22.96;25.39
47742;BME280;33504;52.066;6.096;2023-05-23T12:16:27;102168.04;;;22.87;25.76
47742;BME280;33504;52.066;6.096;2023-05-23T12:18:55;102176.93;;;22.04;26.03
47742;BME280;33504;52.066;6.096;2023-05-23T12:21:24;102175.29;;;22.04;26.34
47742;BME280;33504;52.066;6.096;2023-05-23T12:23:51;102181.76;;;21.95;26.92
47742;BME280;33504;52.066;6.096;2023-05-23T12:26:19;102184.90;;;21.60;27.22
47742;BME280;33504;52.066;6.096;2023-05-23T12:28:46;102180.46;;;22.14;26.92
47742;BME280;33504;52.066;6.096;2023-05-23T12:31:16;102178.99;;;22.37;26.38
47742;BME280;33504;52.066;6.096;2023-05-23T12:33:44;102180.04;;;22.51;26.17
47742;BME280;33504;52.066;6.096;2023-05-23T12:36:12;102182.03;;;22.85;24.81
47742;BME280;33504;52.066;6.096;2023-05-23T12:38:40;102181.41;;;22.26;25.53
47742;BME280;33504;52.066;6.096;2023-05-23T12:41:08;102187.16;;;21.89;26.27
47742;BME280;33504;52.066;6.096;2023-05-23T12:43:37;102196.80;;;21.65;26.40
47742;BME280;33504;52.066;6.096;2023-05-23T12:46:04;102198.37;;;21.95;27.24
47742;BME280;33504;52.066;6.096;2023-05-23T12:48:30;102196.31;;;22.03;26.82
47742;BME280;33504;52.066;6.096;2023-05-23T12:50:58;102195.81;;;22.06;26.40
47742;BME280;33504;52.066;6.096;2023-05-23T12:53:25;102191.95;;;22.42;25.29
47742;BME280;33504;52.066;6.096;2023-05-23T12:55:52;102194.72;;;22.98;25.91